createdAt,value
2023-03-06T00:00:59.969Z,2.18
2023-03-06T00:04:02.899Z,2.16
2023-03-06T00:07:05.565Z,2.14
2023-03-06T00:10:09.285Z,2.14
2023-03-06T00:13:13.645Z,2.11
2023-03-06T00:16:16.425Z,2.10
2023-03-06T00:19:18.983Z,2.07
2023-03-06T00:22:21.828Z,2.04
2023-03-06T00:25:24.930Z,2.07
2023-03-06T00:28:31.018Z,2.07
2023-03-06T00:31:34.072Z,1.95
2023-03-06T00:34:36.960Z,2.04
2023-03-06T00:37:40.084Z,2.04
2023-03-06T00:40:42.862Z,2.03
2023-03-06T00:43:45.516Z,2.05
2023-03-06T00:46:48.331Z,2.07
2023-03-06T00:49:51.052Z,2.07
2023-03-06T00:52:54.724Z,2.05
2023-03-06T00:55:57.307Z,2.06
2023-03-06T00:59:00.097Z,2.04
2023-03-06T01:02:03.913Z,2.02
2023-03-06T01:05:08.304Z,2.02
2023-03-06T01:08:10.932Z,2.03
2023-03-06T01:11:13.815Z,2.04
2023-03-06T01:14:19.106Z,2.05
2023-03-06T01:17:21.955Z,2.04
2023-03-06T01:20:24.788Z,2.07
2023-03-06T01:23:27.629Z,2.08
2023-03-06T01:26:30.563Z,2.11
2023-03-06T01:29:34.040Z,2.14
2023-03-06T01:32:36.644Z,2.17
2023-03-06T01:35:40.041Z,2.19
2023-03-06T01:38:43.140Z,2.21
2023-03-06T01:41:46.147Z,2.23
2023-03-06T01:45:20.864Z,2.32
2023-03-06T01:48:24.581Z,2.38
2023-03-06T01:51:33.955Z,2.38
2023-03-06T01:54:42.961Z,2.42
2023-03-06T01:57:47.711Z,2.40
2023-03-06T02:00:50.550Z,2.40
2023-03-06T02:03:53.563Z,2.38
2023-03-06T02:06:57.079Z,2.37
2023-03-06T02:09:59.993Z,2.36
2023-03-06T02:13:03.056Z,2.36
2023-03-06T02:16:07.149Z,2.36
2023-03-06T02:19:39.719Z,2.35
2023-03-06T02:22:54.433Z,2.36
2023-03-06T02:25:58.806Z,2.29
2023-03-06T02:29:01.932Z,2.25
2023-03-06T02:32:05.377Z,2.29
2023-03-06T02:35:34.510Z,2.30
2023-03-06T02:38:44.380Z,2.25
2023-03-06T02:41:47.097Z,2.25
2023-03-06T02:44:52.263Z,2.26
2023-03-06T02:47:55.003Z,2.23
2023-03-06T02:50:57.975Z,2.22
2023-03-06T02:54:01.640Z,2.20
2023-03-06T02:57:04.616Z,2.19
2023-03-06T03:00:08.514Z,2.15
2023-03-06T03:03:11.472Z,2.23
2023-03-06T03:06:14.152Z,2.23
2023-03-06T03:09:17.819Z,2.21
2023-03-06T03:12:22.393Z,2.22
2023-03-06T03:15:26.080Z,2.23
2023-03-06T03:18:29.367Z,2.24
2023-03-06T03:21:32.318Z,2.22
2023-03-06T03:24:35.332Z,2.22
2023-03-06T03:27:38.810Z,2.21
2023-03-06T03:30:42.777Z,2.23
2023-03-06T03:33:46.210Z,2.18
2023-03-06T03:36:49.131Z,2.23
2023-03-06T03:39:52.101Z,2.23
2023-03-06T03:42:54.861Z,2.23
2023-03-06T03:45:58.057Z,2.23
2023-03-06T03:49:00.980Z,2.24
2023-03-06T03:52:04.588Z,2.25
2023-03-06T03:55:08.116Z,2.25
2023-03-06T03:58:12.422Z,2.27
2023-03-06T04:01:15.001Z,2.28
2023-03-06T04:04:18.459Z,2.28
2023-03-06T04:07:21.313Z,2.28
2023-03-06T04:10:24.770Z,2.28
2023-03-06T04:13:27.552Z,2.30
2023-03-06T04:16:30.557Z,2.30
2023-03-06T04:19:33.402Z,2.21
2023-03-06T04:22:36.965Z,2.29
2023-03-06T04:25:40.522Z,2.27
2023-03-06T04:28:43.921Z,2.27
2023-03-06T04:31:46.659Z,2.26
2023-03-06T04:34:49.988Z,2.27
2023-03-06T04:37:52.580Z,2.28
2023-03-06T04:40:56.344Z,2.27
2023-03-06T04:43:59.203Z,2.27
2023-03-06T04:47:02.091Z,2.28
2023-03-06T04:50:05.236Z,2.27
2023-03-06T04:53:09.044Z,2.27
2023-03-06T04:56:11.624Z,2.28
2023-03-06T04:59:14.452Z,2.27
2023-03-06T05:02:17.843Z,2.28
2023-03-06T05:05:20.718Z,2.26
2023-03-06T05:08:23.985Z,2.25
2023-03-06T05:11:27.365Z,2.27
2023-03-06T05:14:30.616Z,2.25
2023-03-06T05:17:33.436Z,2.26
2023-03-06T05:20:36.155Z,2.25
2023-03-06T05:23:38.955Z,2.26
2023-03-06T05:26:41.485Z,2.24
2023-03-06T05:29:44.452Z,2.22
2023-03-06T05:32:47.260Z,2.22
2023-03-06T05:35:50.466Z,2.20
2023-03-06T05:38:53.260Z,2.17
2023-03-06T05:41:56.155Z,2.07
2023-03-06T05:44:58.785Z,2.18
2023-03-06T05:48:01.958Z,2.17
2023-03-06T05:51:05.797Z,2.18
2023-03-06T05:54:08.888Z,2.15
2023-03-06T05:57:11.484Z,2.13
2023-03-06T06:00:15.626Z,2.15
2023-03-06T06:03:20.702Z,2.15
2023-03-06T06:06:23.365Z,2.15
2023-03-06T06:09:27.573Z,2.15
2023-03-06T06:12:30.106Z,2.18
2023-03-06T06:15:33.196Z,2.21
2023-03-06T06:18:35.805Z,2.22
2023-03-06T06:21:38.725Z,2.24
2023-03-06T06:24:41.346Z,2.23
2023-03-06T06:27:44.241Z,2.25
2023-03-06T06:30:46.774Z,2.23
2023-03-06T06:33:49.679Z,2.10
2023-03-06T06:36:53.639Z,2.24
2023-03-06T06:39:56.805Z,2.26
2023-03-06T06:42:59.354Z,2.26
2023-03-06T06:46:28.315Z,2.30
2023-03-06T06:49:25.483Z,2.36
2023-03-06T06:52:28.489Z,2.42
2023-03-06T06:55:31.250Z,2.45
2023-03-06T06:58:34.193Z,2.48
2023-03-06T07:01:37.125Z,2.52
2023-03-06T07:04:49.291Z,2.47
2023-03-06T07:08:02.900Z,2.55
2023-03-06T07:11:08.229Z,2.56
2023-03-06T07:14:11.096Z,2.64
2023-03-06T07:17:13.994Z,2.64
2023-03-06T07:20:16.893Z,2.68
2023-03-06T07:23:20.002Z,2.73
2023-03-06T07:26:24.188Z,2.78
2023-03-06T07:29:27.245Z,2.77
2023-03-06T07:32:30.054Z,2.74
2023-03-06T07:35:33.372Z,2.81
2023-03-06T07:38:36.705Z,2.86
2023-03-06T07:41:39.541Z,2.97
2023-03-06T07:44:42.348Z,2.97
2023-03-06T07:47:45.324Z,3.03
2023-03-06T07:51:04.629Z,3.04
2023-03-06T07:54:07.684Z,3.13
2023-03-06T07:57:10.528Z,3.11
2023-03-06T08:00:15.427Z,3.25
2023-03-06T08:03:19.114Z,3.35
2023-03-06T08:06:24.311Z,3.37
2023-03-06T08:09:27.629Z,3.16
2023-03-06T08:12:30.662Z,3.24
2023-03-06T08:15:33.654Z,3.30
2023-03-06T08:18:39.953Z,3.28
2023-03-06T08:21:43.177Z,3.30
2023-03-06T08:24:45.871Z,3.25
2023-03-06T08:27:48.928Z,3.43
2023-03-06T08:30:51.637Z,3.24
2023-03-06T08:33:55.665Z,3.41
2023-03-06T08:36:58.453Z,3.41
2023-03-06T08:40:04.765Z,3.45
2023-03-06T08:43:13.084Z,3.33
2023-03-06T08:46:18.823Z,3.28
2023-03-06T08:49:21.847Z,3.62
2023-03-06T08:52:24.895Z,3.47
2023-03-06T08:55:28.282Z,3.07
2023-03-06T08:58:31.482Z,3.03
2023-03-06T09:01:36.989Z,3.28
2023-03-06T09:04:40.783Z,3.28
2023-03-06T09:07:43.651Z,3.16
2023-03-06T09:10:47.951Z,3.26
2023-03-06T09:13:51.009Z,3.31
2023-03-06T09:16:54.285Z,3.43
2023-03-06T09:19:56.945Z,3.45
2023-03-06T09:22:59.983Z,3.47
2023-03-06T09:26:03.111Z,3.44
2023-03-06T09:29:06.339Z,3.27
2023-03-06T09:32:11.140Z,3.40
2023-03-06T09:35:15.244Z,3.44
2023-03-06T09:38:23.534Z,3.48
2023-03-06T09:41:37.432Z,3.37
2023-03-06T09:44:41.323Z,3.25
2023-03-06T09:48:11.161Z,3.21
2023-03-06T09:51:17.490Z,3.30
2023-03-06T09:54:25.425Z,3.31
2023-03-06T09:57:35.738Z,3.25
2023-03-06T10:01:06.858Z,3.22
2023-03-06T10:04:44.298Z,2.93
2023-03-06T10:07:52.873Z,3.10
2023-03-06T10:11:10.766Z,3.20
2023-03-06T10:14:18.918Z,3.16
2023-03-06T10:17:23.069Z,2.88
2023-03-06T10:20:28.027Z,2.83
2023-03-06T10:23:54.869Z,3.24
2023-03-06T10:27:11.153Z,3.16
2023-03-06T10:30:20.733Z,3.24
2023-03-06T10:33:48.241Z,3.09
2023-03-06T10:36:51.266Z,3.21
2023-03-06T10:39:59.952Z,3.31
2023-03-06T10:43:11.421Z,3.23
2023-03-06T10:46:27.237Z,3.18
2023-03-06T10:49:31.835Z,3.31
2023-03-06T10:52:35.792Z,3.65
2023-03-06T10:55:38.771Z,3.34
2023-03-06T10:58:41.406Z,3.65
2023-03-06T11:01:46.779Z,3.66
2023-03-06T11:04:53.056Z,3.82
2023-03-06T11:07:59.497Z,4.10
2023-03-06T11:11:05.958Z,4.35
2023-03-06T11:14:18.011Z,4.46
2023-03-06T11:17:32.244Z,4.69
2023-03-06T11:20:51.357Z,4.58
2023-03-06T11:23:57.818Z,4.89
2023-03-06T11:27:17.357Z,4.69
2023-03-06T11:30:43.371Z,4.78
2023-03-06T11:33:54.212Z,5.03
2023-03-06T11:37:27.316Z,5.14
2023-03-06T11:40:52.085Z,5.11
2023-03-06T11:44:05.401Z,5.04
2023-03-06T11:47:18.024Z,4.65
2023-03-06T11:50:40.810Z,4.82
2023-03-06T11:53:43.961Z,5.02
2023-03-06T11:57:02.967Z,4.70
2023-03-06T12:00:12.278Z,5.03
2023-03-06T12:03:57.930Z,5.11
2023-03-06T12:07:00.731Z,5.07
2023-03-06T12:10:06.479Z,5.13
2023-03-06T12:13:18.016Z,5.21
2023-03-06T12:16:26.821Z,5.23
2023-03-06T12:20:07.348Z,5.21
2023-03-06T12:23:24.142Z,5.45
2023-03-06T12:26:39.096Z,5.68
2023-03-06T12:30:07.895Z,5.77
2023-03-06T12:33:35.261Z,5.74
2023-03-06T12:36:41.056Z,5.53
2023-03-06T12:39:52.737Z,5.19
2023-03-06T12:43:23.204Z,5.51
2023-03-06T12:46:27.110Z,5.33
2023-03-06T12:49:34.633Z,5.62
2023-03-06T12:52:37.477Z,5.89
2023-03-06T12:55:47.979Z,5.77
2023-03-06T12:58:53.100Z,5.41
2023-03-06T13:02:01.961Z,5.62
2023-03-06T13:05:14.053Z,5.46
2023-03-06T13:08:37.334Z,5.47
2023-03-06T13:12:14.003Z,5.38
2023-03-06T13:15:37.335Z,5.39
2023-03-06T13:18:49.157Z,5.44
2023-03-06T13:21:55.427Z,5.39
2023-03-06T13:25:27.115Z,5.51
2023-03-06T13:28:48.734Z,5.58
2023-03-06T13:31:54.459Z,5.69
2023-03-06T13:34:57.553Z,5.69
2023-03-06T13:38:00.445Z,5.56
2023-03-06T13:41:25.233Z,5.44
2023-03-06T13:44:28.434Z,5.64
2023-03-06T13:48:10.952Z,5.83
2023-03-06T13:51:24.451Z,5.82
2023-03-06T13:54:47.871Z,5.84
2023-03-06T13:58:13.301Z,5.68
2023-03-06T14:01:28.692Z,5.64
2023-03-06T14:04:34.428Z,5.70
2023-03-06T14:07:41.580Z,5.58
2023-03-06T14:10:46.113Z,5.56
2023-03-06T14:13:51.924Z,5.58
2023-03-06T14:16:55.307Z,5.59
2023-03-06T14:20:14.151Z,5.52
2023-03-06T14:23:32.258Z,5.55
2023-03-06T14:26:47.362Z,5.61
2023-03-06T14:29:50.256Z,5.47
2023-03-06T14:32:54.355Z,5.31
2023-03-06T14:36:01.282Z,5.39
2023-03-06T14:39:29.976Z,5.33
2023-03-06T14:42:33.703Z,5.18
2023-03-06T14:45:36.580Z,5.24
2023-03-06T14:48:44.487Z,5.20
2023-03-06T14:51:50.466Z,5.22
2023-03-06T14:54:54.258Z,5.17
2023-03-06T14:58:08.320Z,5.13
2023-03-06T15:01:13.360Z,5.09
2023-03-06T15:04:45.095Z,5.09
2023-03-06T15:07:48.507Z,5.09
2023-03-06T15:10:59.597Z,4.81
2023-03-06T15:14:04.788Z,5.03
2023-03-06T15:17:19.398Z,4.91
2023-03-06T15:20:56.054Z,4.92
2023-03-06T15:23:59.714Z,4.90
2023-03-06T15:27:05.233Z,4.83
2023-03-06T15:30:29.389Z,4.81
2023-03-06T15:33:32.304Z,4.79
2023-03-06T15:36:39.618Z,4.79
2023-03-06T15:39:43.507Z,4.76
2023-03-06T15:42:46.472Z,4.81
2023-03-06T15:45:49.396Z,4.78
2023-03-06T15:48:53.829Z,4.78
2023-03-06T15:51:56.926Z,4.78
2023-03-06T15:54:59.722Z,4.65
2023-03-06T15:58:03.318Z,4.64
2023-03-06T16:01:06.467Z,4.63
2023-03-06T16:04:09.599Z,4.57
2023-03-06T16:07:12.582Z,4.53
2023-03-06T16:10:18.612Z,4.48
2023-03-06T16:13:28.974Z,4.40
2023-03-06T16:16:37.322Z,4.32
2023-03-06T16:19:40.480Z,4.27
2023-03-06T16:22:45.003Z,4.16
2023-03-06T16:25:48.715Z,4.16
2023-03-06T16:28:51.709Z,4.09
2023-03-06T16:31:56.540Z,4.04
2023-03-06T16:34:59.650Z,3.97
2023-03-06T16:38:02.512Z,3.90
2023-03-06T16:41:05.654Z,3.84
2023-03-06T16:44:10.172Z,3.72
2023-03-06T16:47:14.572Z,3.63
2023-03-06T16:50:38.895Z,3.53
2023-03-06T16:53:46.514Z,3.46
2023-03-06T16:56:49.184Z,3.36
2023-03-06T16:59:52.308Z,3.33
2023-03-06T17:02:55.731Z,3.27
2023-03-06T17:05:58.791Z,3.25
2023-03-06T17:09:01.538Z,3.22
2023-03-06T17:12:04.714Z,3.24
2023-03-06T17:15:08.816Z,3.19
2023-03-06T17:18:12.063Z,3.12
2023-03-06T17:21:17.949Z,3.01
2023-03-06T17:24:21.113Z,3.01
2023-03-06T17:27:23.863Z,2.96
2023-03-06T17:30:27.235Z,2.90
2023-03-06T17:33:30.001Z,2.84
2023-03-06T17:36:33.116Z,2.75
2023-03-06T17:39:38.010Z,2.64
2023-03-06T17:42:41.329Z,2.50
2023-03-06T17:45:45.523Z,2.51
2023-03-06T17:48:48.669Z,2.44
2023-03-06T17:51:56.451Z,2.34
2023-03-06T17:54:59.954Z,2.26
2023-03-06T17:58:02.785Z,2.23
2023-03-06T18:01:22.442Z,2.10
2023-03-06T18:04:26.180Z,1.98
2023-03-06T18:07:29.019Z,1.92
2023-03-06T18:10:32.159Z,1.86
2023-03-06T18:13:37.598Z,1.81
2023-03-06T18:16:40.910Z,1.74
2023-03-06T18:19:43.745Z,1.67
2023-03-06T18:22:46.923Z,1.63
2023-03-06T18:25:50.507Z,1.58
2023-03-06T18:28:56.617Z,1.52
2023-03-06T18:31:59.539Z,1.44
2023-03-06T18:35:02.651Z,1.33
2023-03-06T18:38:05.532Z,1.22
2023-03-06T18:41:08.849Z,1.33
2023-03-06T18:44:14.664Z,1.09
2023-03-06T18:47:17.869Z,1.26
2023-03-06T18:50:20.976Z,1.09
2023-03-06T18:53:24.087Z,1.09
2023-03-06T18:56:27.133Z,1.11
2023-03-06T18:59:33.340Z,1.12
2023-03-06T19:02:36.192Z,1.08
2023-03-06T19:05:44.557Z,1.06
2023-03-06T19:08:48.104Z,1.06
2023-03-06T19:11:53.688Z,0.94
2023-03-06T19:14:58.986Z,1.01
2023-03-06T19:18:02.108Z,0.91
2023-03-06T19:21:14.367Z,0.69
2023-03-06T19:24:17.592Z,0.64
2023-03-06T19:27:20.618Z,0.59
2023-03-06T19:30:25.877Z,0.61
2023-03-06T19:33:28.735Z,0.59
2023-03-06T19:36:34.027Z,0.46
2023-03-06T19:39:36.985Z,0.27
2023-03-06T19:42:40.088Z,0.39
2023-03-06T19:45:44.190Z,0.25
2023-03-06T19:48:47.480Z,0.30
2023-03-06T19:51:50.610Z,0.35
2023-03-06T19:54:54.301Z,0.30
2023-03-06T19:57:57.777Z,0.31
2023-03-06T20:01:16.849Z,0.25
2023-03-06T20:04:20.075Z,0.22
2023-03-06T20:07:22.974Z,0.16
2023-03-06T20:10:25.979Z,0.17
2023-03-06T20:13:28.599Z,0.16
2023-03-06T20:16:32.677Z,0.10
2023-03-06T20:19:35.439Z,0.05
2023-03-06T20:22:38.561Z,0.05
2023-03-06T20:25:41.419Z,0.02
2023-03-06T20:28:45.178Z,0.05
2023-03-06T20:31:47.964Z,0.14
2023-03-06T20:34:51.374Z,-0.04
2023-03-06T20:37:54.393Z,-0.05
2023-03-06T20:40:58.932Z,-0.16
2023-03-06T20:44:04.220Z,-0.04
2023-03-06T20:47:09.004Z,-0.16
2023-03-06T20:50:11.937Z,-0.37
2023-03-06T20:53:15.021Z,-0.04
2023-03-06T20:56:19.961Z,-0.34
2023-03-06T20:59:23.855Z,-0.41
2023-03-06T21:02:27.101Z,-0.06
2023-03-06T21:05:30.131Z,-0.28
2023-03-06T21:08:32.726Z,-0.46
2023-03-06T21:11:35.725Z,-0.32
2023-03-06T21:14:38.515Z,-0.34
2023-03-06T21:17:41.692Z,-0.42
2023-03-06T21:20:44.974Z,-0.37
2023-03-06T21:23:48.523Z,-0.32
2023-03-06T21:26:51.995Z,-0.52
2023-03-06T21:29:54.916Z,-0.44
2023-03-06T21:32:57.428Z,-0.34
2023-03-06T21:36:00.450Z,-0.45
2023-03-06T21:39:06.324Z,-0.60
2023-03-06T21:42:09.877Z,-0.69
2023-03-06T21:45:12.732Z,-0.78
2023-03-06T21:48:16.010Z,-0.70
2023-03-06T21:51:20.876Z,-0.84
2023-03-06T21:54:23.836Z,-0.78
2023-03-06T21:57:26.758Z,-0.94
2023-03-06T22:00:29.814Z,-0.96
2023-03-06T22:03:32.794Z,-1.02
2023-03-06T22:06:35.309Z,-1.02
2023-03-06T22:09:38.161Z,-1.10
2023-03-06T22:12:40.788Z,-1.09
2023-03-06T22:15:53.419Z,-1.07
2023-03-06T22:18:56.522Z,-1.09
2023-03-06T22:21:59.415Z,-1.16
2023-03-06T22:25:02.277Z,-0.96
2023-03-06T22:28:05.159Z,-0.84
2023-03-06T22:31:14.681Z,-0.89
2023-03-06T22:34:17.575Z,-0.99
2023-03-06T22:37:20.058Z,-0.99
2023-03-06T22:40:22.890Z,-1.08
2023-03-06T22:43:25.470Z,-0.98
2023-03-06T22:46:28.340Z,-1.05
2023-03-06T22:49:31.078Z,-1.09
2023-03-06T22:52:34.208Z,-1.10
2023-03-06T22:55:36.795Z,-1.09
2023-03-06T22:58:40.423Z,-1.09
2023-03-06T23:01:43.277Z,-1.13
2023-03-06T23:04:52.354Z,-1.19
2023-03-06T23:07:54.927Z,-1.16
2023-03-06T23:10:57.278Z,-1.16
2023-03-06T23:14:19.196Z,-1.15
2023-03-06T23:17:40.316Z,-1.16
2023-03-06T23:21:00.957Z,-1.02
2023-03-06T23:24:22.585Z,-0.87
2023-03-06T23:27:25.598Z,-0.81
2023-03-06T23:30:28.255Z,-0.80
2023-03-06T23:33:31.126Z,-0.73
2023-03-06T23:36:33.848Z,-0.72
2023-03-06T23:39:37.534Z,-0.73
2023-03-06T23:42:40.354Z,-0.74
2023-03-06T23:45:52.898Z,-0.79
2023-03-06T23:48:55.540Z,-0.76
2023-03-06T23:51:58.649Z,-0.82
2023-03-06T23:55:01.657Z,-0.87
2023-03-06T23:58:04.863Z,-0.91
